Kevil, Kentucky
Current Conditions -  °F | °C
As of 4:53 PM on Tuesday 25 Nov 2014 (Local Time) from KPAH Reporting Station
Clear Clear  
Wind Chill:   Ceiling: Unl
Heat Index:   Visibility: 10mi
Dew Point: -3°   Wind: 0mph
Humidity: 58%   Direction: NA
Pressure: 30.15"   Gusts: NA
Location:  37.09°N, 88.89°W
Report Text: KPAH 252253Z 00000KT 10SM CLR 04/M03 A3015 RMK AO2 SLP214 T00441033
Loading
Personal Weather Stations






























Interactive Weather Map New forecast layout! Learn more

10-Day Weather Forecast

Advertisements
Track Severe Weather on mobile